JLY1087 LGSK-LQSA
Flight info
| Callsign | JLY1087 |
|---|---|
| Flight time | 1h 10m |
| Altitude | 36000 |
| Route | TSL UN130 TALAS DCT LONTA DCT KEB |
| Aircraft | B38M/M-SDE1FGHILORVWXY/HB1 |
Departure
| Time | 2026-04-27 00:15 |
|---|---|
| Airport | Skiathos Island National Airport (LGSK) |
Arrival
| Time | 2026-04-27 01:25 |
|---|---|
| Airport | Sarajevo International Airport (LQSA) |
| Time | Latitude | Longitude | Altitude | Speed | Heading |
|---|---|---|---|---|---|
| 2026-04-27 00:06 | 39.17965 | 23.50352 | 44 ft | 0 kts | 198° |
| 2026-04-27 00:08 | 39.17964 | 23.50352 | 44 ft | 0 kts | 198° |
| 2026-04-27 00:09 | 39.17993 | 23.50365 | 48 ft | 0 kts | 198° |
| 2026-04-27 00:11 | 39.17989 | 23.50363 | 46 ft | 3 kts | 198° |
| 2026-04-27 00:11 | 39.17925 | 23.50334 | 46 ft | 18 kts | 199° |
| 2026-04-27 00:11 | 39.17784 | 23.50269 | 43 ft | 20 kts | 199° |
| 2026-04-27 00:12 | 39.17641 | 23.50222 | 39 ft | 19 kts | 201° |
| 2026-04-27 00:12 | 39.17549 | 23.50259 | 38 ft | 15 kts | 152° |
| 2026-04-27 00:12 | 39.17435 | 23.50227 | 35 ft | 21 kts | 197° |
| 2026-04-27 00:12 | 39.17259 | 23.50155 | 30 ft | 31 kts | 198° |
| 2026-04-27 00:13 | 39.17080 | 23.50080 | 22 ft | 19 kts | 227° |
| 2026-04-27 00:13 | 39.17019 | 23.50060 | 18 ft | 6 kts | 64° |
| 2026-04-27 00:13 | 39.17061 | 23.50072 | 20 ft | 7 kts | 13° |
| 2026-04-27 00:13 | 39.17068 | 23.50074 | 21 ft | 0 kts | 16° |
| 2026-04-27 00:14 | 39.17105 | 23.50089 | 22 ft | 33 kts | 18° |
| 2026-04-27 00:14 | 39.17651 | 23.50331 | 43 ft | 128 kts | 19° |
| 2026-04-27 00:14 | 39.18704 | 23.50810 | 376 ft | 182 kts | 19° |
| 2026-04-27 00:15 | 39.19933 | 23.51376 | 1507 ft | 184 kts | 17° |
| 2026-04-27 00:15 | 39.21188 | 23.51942 | 2502 ft | 204 kts | 24° |
| 2026-04-27 00:15 | 39.22237 | 23.53314 | 3342 ft | 224 kts | 69° |
| 2026-04-27 00:15 | 39.22324 | 23.55215 | 4899 ft | 218 kts | 102° |
| 2026-04-27 00:16 | 39.21506 | 23.56923 | 5858 ft | 234 kts | 138° |
| 2026-04-27 00:16 | 39.20287 | 23.58343 | 6969 ft | 238 kts | 133° |
| 2026-04-27 00:16 | 39.19172 | 23.59949 | 8101 ft | 243 kts | 132° |
| 2026-04-27 00:16 | 39.18035 | 23.61587 | 9260 ft | 250 kts | 130° |
| 2026-04-27 00:17 | 39.17160 | 23.63602 | 10071 ft | 269 kts | 103° |
| 2026-04-27 00:17 | 39.17214 | 23.66018 | 10776 ft | 284 kts | 70° |
| 2026-04-27 00:17 | 39.18275 | 23.68202 | 11449 ft | 298 kts | 39° |
| 2026-04-27 00:17 | 39.20126 | 23.69467 | 12090 ft | 312 kts | 11° |
| 2026-04-27 00:18 | 39.22326 | 23.69425 | 12672 ft | 327 kts | 343° |
| 2026-04-27 00:18 | 39.24339 | 23.67989 | 13353 ft | 339 kts | 316° |
| 2026-04-27 00:18 | 39.25686 | 23.65457 | 14079 ft | 351 kts | 293° |
| 2026-04-27 00:18 | 39.26465 | 23.62449 | 14917 ft | 355 kts | 291° |
| 2026-04-27 00:19 | 39.27469 | 23.59518 | 15717 ft | 360 kts | 301° |
| 2026-04-27 00:19 | 39.29072 | 23.57049 | 16541 ft | 362 kts | 320° |
| 2026-04-27 00:19 | 39.31229 | 23.55349 | 17353 ft | 367 kts | 337° |
| 2026-04-27 00:19 | 39.33611 | 23.54116 | 18143 ft | 372 kts | 338° |
| 2026-04-27 00:20 | 39.36044 | 23.52908 | 18857 ft | 376 kts | 339° |
| 2026-04-27 00:20 | 39.38501 | 23.51721 | 19575 ft | 379 kts | 339° |
| 2026-04-27 00:20 | 39.40989 | 23.50536 | 20275 ft | 382 kts | 339° |
| 2026-04-27 00:20 | 39.43479 | 23.49323 | 20964 ft | 386 kts | 339° |
| 2026-04-27 00:21 | 39.45971 | 23.48111 | 21635 ft | 389 kts | 339° |
| 2026-04-27 00:21 | 39.48519 | 23.46876 | 22309 ft | 393 kts | 339° |
| 2026-04-27 00:21 | 39.51093 | 23.45628 | 22974 ft | 396 kts | 339° |
| 2026-04-27 00:21 | 39.53691 | 23.44369 | 23612 ft | 400 kts | 339° |
| 2026-04-27 00:22 | 39.56310 | 23.43097 | 24155 ft | 403 kts | 339° |
| 2026-04-27 00:22 | 39.58947 | 23.41817 | 24716 ft | 405 kts | 339° |
| 2026-04-27 00:22 | 39.61597 | 23.40529 | 25256 ft | 408 kts | 339° |
| 2026-04-27 00:22 | 39.64265 | 23.39231 | 25778 ft | 411 kts | 338° |
| 2026-04-27 00:23 | 39.66946 | 23.37926 | 26292 ft | 414 kts | 338° |
| 2026-04-27 00:23 | 39.69619 | 23.36624 | 26788 ft | 417 kts | 338° |
| 2026-04-27 00:23 | 39.72346 | 23.35294 | 27275 ft | 420 kts | 338° |
| 2026-04-27 00:23 | 39.75090 | 23.33955 | 27784 ft | 422 kts | 338° |
| 2026-04-27 00:24 | 39.77852 | 23.32606 | 28258 ft | 425 kts | 338° |
| 2026-04-27 00:24 | 39.80628 | 23.31248 | 28743 ft | 428 kts | 338° |
| 2026-04-27 00:24 | 39.83431 | 23.29877 | 29214 ft | 431 kts | 338° |
| 2026-04-27 00:24 | 39.86245 | 23.28499 | 29670 ft | 434 kts | 338° |
| 2026-04-27 00:25 | 39.89075 | 23.27112 | 30113 ft | 436 kts | 338° |
| 2026-04-27 00:25 | 39.91914 | 23.25720 | 30485 ft | 439 kts | 338° |
| 2026-04-27 00:25 | 39.94731 | 23.24336 | 30865 ft | 441 kts | 338° |
| 2026-04-27 00:25 | 39.97611 | 23.22921 | 31247 ft | 443 kts | 338° |
| 2026-04-27 00:26 | 39.99521 | 23.21982 | 31569 ft | 442 kts | 338° |
| 2026-04-27 00:26 | 40.02394 | 23.20567 | 32088 ft | 441 kts | 337° |
| 2026-04-27 00:26 | 40.06218 | 23.18683 | 32789 ft | 438 kts | 337° |
| 2026-04-27 00:26 | 40.09033 | 23.17295 | 33312 ft | 436 kts | 337° |
| 2026-04-27 00:27 | 40.11873 | 23.15893 | 33835 ft | 435 kts | 337° |
| 2026-04-27 00:27 | 40.13737 | 23.14972 | 34155 ft | 434 kts | 337° |
| 2026-04-27 00:27 | 40.16557 | 23.13578 | 34586 ft | 433 kts | 337° |
| 2026-04-27 00:27 | 40.19374 | 23.12184 | 34986 ft | 433 kts | 337° |
| 2026-04-27 00:28 | 40.22191 | 23.10789 | 35390 ft | 432 kts | 337° |
| 2026-04-27 00:28 | 40.25003 | 23.09394 | 35758 ft | 432 kts | 336° |
| 2026-04-27 00:28 | 40.27827 | 23.07993 | 35988 ft | 434 kts | 336° |
| 2026-04-27 00:28 | 40.30654 | 23.06590 | 36006 ft | 433 kts | 336° |
| 2026-04-27 00:29 | 40.36273 | 23.03796 | 35996 ft | 431 kts | 336° |
| 2026-04-27 00:29 | 40.41836 | 23.01026 | 35996 ft | 431 kts | 336° |
| 2026-04-27 00:30 | 40.44527 | 22.99359 | 35964 ft | 427 kts | 324° |
| 2026-04-27 00:30 | 40.46734 | 22.96800 | 35999 ft | 422 kts | 309° |
| 2026-04-27 00:30 | 40.50471 | 22.90799 | 35992 ft | 424 kts | 308° |
| 2026-04-27 00:31 | 40.54111 | 22.84690 | 35991 ft | 424 kts | 307° |
| 2026-04-27 00:31 | 40.57707 | 22.78546 | 35992 ft | 424 kts | 307° |
| 2026-04-27 00:32 | 40.61297 | 22.72385 | 35992 ft | 424 kts | 307° |
| 2026-04-27 00:32 | 40.64864 | 22.66249 | 35991 ft | 424 kts | 306° |
| 2026-04-27 00:33 | 40.68452 | 22.60065 | 35992 ft | 424 kts | 306° |
| 2026-04-27 00:33 | 40.72026 | 22.53893 | 35993 ft | 424 kts | 306° |
| 2026-04-27 00:34 | 40.75614 | 22.47685 | 35994 ft | 424 kts | 306° |
| 2026-04-27 00:34 | 40.79189 | 22.41485 | 36002 ft | 425 kts | 306° |
| 2026-04-27 00:35 | 40.82756 | 22.35290 | 35993 ft | 423 kts | 306° |
| 2026-04-27 00:35 | 40.86311 | 22.29102 | 35998 ft | 423 kts | 306° |
| 2026-04-27 00:36 | 40.89864 | 22.22905 | 36004 ft | 423 kts | 306° |
| 2026-04-27 00:36 | 40.93398 | 22.16729 | 36011 ft | 423 kts | 306° |
| 2026-04-27 00:37 | 40.96947 | 22.10513 | 36004 ft | 423 kts | 306° |
| 2026-04-27 00:37 | 41.00503 | 22.04275 | 36021 ft | 424 kts | 306° |
| 2026-04-27 00:38 | 41.04050 | 21.98041 | 35996 ft | 424 kts | 306° |
| 2026-04-27 00:38 | 41.08016 | 21.92268 | 36012 ft | 428 kts | 324° |
| 2026-04-27 00:39 | 41.10685 | 21.90484 | 36047 ft | 432 kts | 336° |
| 2026-04-27 00:39 | 41.13497 | 21.89046 | 36006 ft | 433 kts | 336° |
| 2026-04-27 00:39 | 41.19112 | 21.86286 | 36029 ft | 433 kts | 336° |
| 2026-04-27 00:40 | 41.24765 | 21.83588 | 36031 ft | 433 kts | 337° |
| 2026-04-27 00:40 | 41.30448 | 21.80891 | 36024 ft | 434 kts | 337° |
| 2026-04-27 00:41 | 41.36127 | 21.78192 | 36025 ft | 433 kts | 337° |
| 2026-04-27 00:41 | 41.41812 | 21.75486 | 36027 ft | 434 kts | 337° |
| 2026-04-27 00:42 | 41.47495 | 21.72775 | 36016 ft | 434 kts | 337° |
| 2026-04-27 00:42 | 41.53190 | 21.70053 | 36027 ft | 434 kts | 337° |
| 2026-04-27 00:43 | 41.58877 | 21.67331 | 36030 ft | 434 kts | 337° |
| 2026-04-27 00:43 | 41.64551 | 21.64609 | 36029 ft | 433 kts | 337° |
| 2026-04-27 00:44 | 41.70219 | 21.61885 | 36038 ft | 433 kts | 337° |
| 2026-04-27 00:44 | 41.75871 | 21.59164 | 36018 ft | 435 kts | 337° |
| 2026-04-27 00:45 | 41.81560 | 21.56420 | 36039 ft | 434 kts | 337° |
| 2026-04-27 00:45 | 41.87242 | 21.53674 | 36037 ft | 433 kts | 337° |
| 2026-04-27 00:46 | 41.92900 | 21.50934 | 36030 ft | 432 kts | 337° |
| 2026-04-27 00:46 | 41.98557 | 21.48190 | 36043 ft | 432 kts | 337° |
| 2026-04-27 00:47 | 42.04181 | 21.45456 | 36033 ft | 432 kts | 337° |
| 2026-04-27 00:47 | 42.09843 | 21.42700 | 36044 ft | 432 kts | 337° |
| 2026-04-27 00:48 | 42.15341 | 21.39517 | 36026 ft | 426 kts | 321° |
| 2026-04-27 00:48 | 42.17501 | 21.36840 | 36041 ft | 423 kts | 310° |
| 2026-04-27 00:48 | 42.19483 | 21.33900 | 36054 ft | 424 kts | 310° |
| 2026-04-27 00:49 | 42.23379 | 21.27905 | 36044 ft | 424 kts | 309° |
| 2026-04-27 00:49 | 42.27189 | 21.21892 | 36050 ft | 424 kts | 309° |
| 2026-04-27 00:50 | 42.32906 | 21.12792 | 36060 ft | 424 kts | 309° |
| 2026-04-27 00:51 | 42.36728 | 21.06689 | 36069 ft | 426 kts | 309° |
| 2026-04-27 00:51 | 42.40552 | 21.00571 | 36062 ft | 426 kts | 309° |
| 2026-04-27 00:52 | 42.44373 | 20.94445 | 36072 ft | 426 kts | 309° |
| 2026-04-27 00:52 | 42.48196 | 20.88303 | 36082 ft | 426 kts | 309° |
| 2026-04-27 00:53 | 42.52005 | 20.82171 | 36072 ft | 426 kts | 309° |
| 2026-04-27 00:53 | 42.55796 | 20.76055 | 36059 ft | 427 kts | 309° |
| 2026-04-27 00:54 | 42.59628 | 20.69860 | 36060 ft | 428 kts | 309° |
| 2026-04-27 00:54 | 42.63446 | 20.63676 | 36051 ft | 428 kts | 309° |
| 2026-04-27 00:55 | 42.67257 | 20.57489 | 36056 ft | 428 kts | 309° |
| 2026-04-27 00:55 | 42.71084 | 20.51262 | 36057 ft | 428 kts | 309° |
| 2026-04-27 00:56 | 42.74902 | 20.45038 | 36053 ft | 428 kts | 309° |
| 2026-04-27 00:56 | 42.78726 | 20.38791 | 36063 ft | 430 kts | 309° |
| 2026-04-27 00:57 | 42.82524 | 20.32572 | 36076 ft | 431 kts | 309° |
| 2026-04-27 00:57 | 42.86350 | 20.26295 | 36068 ft | 430 kts | 309° |
| 2026-04-27 00:58 | 42.90167 | 20.20019 | 36070 ft | 430 kts | 309° |
| 2026-04-27 00:58 | 42.93986 | 20.13727 | 36076 ft | 430 kts | 309° |
| 2026-04-27 00:59 | 42.97798 | 20.07431 | 36083 ft | 432 kts | 309° |
| 2026-04-27 00:59 | 43.01626 | 20.01097 | 36079 ft | 432 kts | 309° |
| 2026-04-27 01:00 | 43.05451 | 19.94753 | 36074 ft | 432 kts | 309° |
| 2026-04-27 01:00 | 43.09276 | 19.88397 | 36076 ft | 432 kts | 309° |
| 2026-04-27 01:01 | 43.13085 | 19.82052 | 36075 ft | 432 kts | 308° |
| 2026-04-27 01:01 | 43.16879 | 19.75719 | 36078 ft | 433 kts | 308° |
| 2026-04-27 01:02 | 43.20703 | 19.69322 | 36072 ft | 434 kts | 308° |
| 2026-04-27 01:02 | 43.24522 | 19.62919 | 36078 ft | 434 kts | 308° |
| 2026-04-27 01:03 | 43.28334 | 19.56514 | 36074 ft | 434 kts | 308° |
| 2026-04-27 01:03 | 43.30239 | 19.53309 | 35383 ft | 435 kts | 308° |
| 2026-04-27 01:03 | 43.32175 | 19.50048 | 34555 ft | 438 kts | 308° |
| 2026-04-27 01:03 | 43.34093 | 19.46812 | 33724 ft | 437 kts | 308° |
| 2026-04-27 01:04 | 43.36033 | 19.43538 | 32409 ft | 447 kts | 309° |
| 2026-04-27 01:04 | 43.38000 | 19.40213 | 31597 ft | 446 kts | 309° |
| 2026-04-27 01:04 | 43.39949 | 19.36913 | 30738 ft | 445 kts | 309° |
| 2026-04-27 01:04 | 43.41884 | 19.33637 | 29615 ft | 450 kts | 309° |
| 2026-04-27 01:05 | 43.43867 | 19.30276 | 28441 ft | 453 kts | 309° |
| 2026-04-27 01:05 | 43.45849 | 19.26913 | 27392 ft | 454 kts | 310° |
| 2026-04-27 01:05 | 43.47839 | 19.23532 | 26520 ft | 452 kts | 310° |
| 2026-04-27 01:05 | 43.49805 | 19.20187 | 25727 ft | 447 kts | 310° |
| 2026-04-27 01:06 | 43.51764 | 19.16853 | 24929 ft | 451 kts | 310° |
| 2026-04-27 01:06 | 43.53738 | 19.13476 | 24010 ft | 453 kts | 310° |
| 2026-04-27 01:06 | 43.55716 | 19.10092 | 23115 ft | 452 kts | 310° |
| 2026-04-27 01:06 | 43.57681 | 19.06731 | 22339 ft | 446 kts | 310° |
| 2026-04-27 01:07 | 43.59621 | 19.03409 | 21581 ft | 441 kts | 309° |
| 2026-04-27 01:07 | 43.61523 | 19.00148 | 20813 ft | 436 kts | 309° |
| 2026-04-27 01:07 | 43.63392 | 18.96939 | 20064 ft | 431 kts | 309° |
| 2026-04-27 01:07 | 43.65267 | 18.93719 | 19329 ft | 427 kts | 309° |
| 2026-04-27 01:08 | 43.67116 | 18.90540 | 18673 ft | 422 kts | 309° |
| 2026-04-27 01:08 | 43.68941 | 18.87398 | 17856 ft | 418 kts | 309° |
| 2026-04-27 01:08 | 43.70750 | 18.84281 | 17136 ft | 413 kts | 309° |
| 2026-04-27 01:08 | 43.72532 | 18.81207 | 16320 ft | 409 kts | 309° |
| 2026-04-27 01:09 | 43.74316 | 18.78125 | 15472 ft | 409 kts | 309° |
| 2026-04-27 01:09 | 43.76050 | 18.75127 | 14611 ft | 392 kts | 309° |
| 2026-04-27 01:09 | 43.77699 | 18.72274 | 14468 ft | 362 kts | 309° |
| 2026-04-27 01:09 | 43.79211 | 18.69654 | 14514 ft | 337 kts | 309° |
| 2026-04-27 01:10 | 43.80628 | 18.67197 | 14515 ft | 315 kts | 309° |
| 2026-04-27 01:10 | 43.81938 | 18.64925 | 14484 ft | 296 kts | 309° |
| 2026-04-27 01:10 | 43.83187 | 18.62756 | 14397 ft | 281 kts | 310° |
| 2026-04-27 01:10 | 43.84379 | 18.60684 | 14259 ft | 268 kts | 309° |
| 2026-04-27 01:11 | 43.85512 | 18.58711 | 14148 ft | 256 kts | 309° |
| 2026-04-27 01:11 | 43.86597 | 18.56823 | 14012 ft | 245 kts | 309° |
| 2026-04-27 01:11 | 43.87638 | 18.55011 | 13885 ft | 238 kts | 309° |
| 2026-04-27 01:11 | 43.88694 | 18.53172 | 13761 ft | 249 kts | 309° |
| 2026-04-27 01:12 | 43.89786 | 18.51271 | 13651 ft | 255 kts | 309° |
| 2026-04-27 01:12 | 43.90897 | 18.49332 | 13537 ft | 257 kts | 309° |
| 2026-04-27 01:12 | 43.92004 | 18.47401 | 13393 ft | 257 kts | 309° |
| 2026-04-27 01:12 | 43.92739 | 18.46119 | 13316 ft | 256 kts | 309° |
| 2026-04-27 01:13 | 43.93886 | 18.44229 | 13108 ft | 257 kts | 313° |
| 2026-04-27 01:13 | 43.95084 | 18.42377 | 12793 ft | 259 kts | 313° |
| 2026-04-27 01:13 | 43.96283 | 18.40509 | 12488 ft | 258 kts | 313° |
| 2026-04-27 01:13 | 43.97472 | 18.38647 | 12183 ft | 257 kts | 312° |
| 2026-04-27 01:14 | 43.98653 | 18.36795 | 11909 ft | 255 kts | 313° |
| 2026-04-27 01:14 | 43.99824 | 18.34957 | 11620 ft | 253 kts | 312° |
| 2026-04-27 01:14 | 44.00984 | 18.33131 | 11345 ft | 251 kts | 313° |
| 2026-04-27 01:14 | 44.02134 | 18.31322 | 11063 ft | 248 kts | 312° |
| 2026-04-27 01:15 | 44.03257 | 18.29555 | 10789 ft | 246 kts | 312° |
| 2026-04-27 01:15 | 44.04388 | 18.27773 | 10552 ft | 244 kts | 313° |
| 2026-04-27 01:15 | 44.05509 | 18.26006 | 10247 ft | 243 kts | 313° |
| 2026-04-27 01:15 | 44.06630 | 18.24251 | 10010 ft | 242 kts | 314° |
| 2026-04-27 01:16 | 44.07773 | 18.22541 | 9686 ft | 242 kts | 314° |
| 2026-04-27 01:16 | 44.08914 | 18.20831 | 9409 ft | 240 kts | 314° |
| 2026-04-27 01:16 | 44.10046 | 18.19131 | 9152 ft | 238 kts | 314° |
| 2026-04-27 01:16 | 44.10987 | 18.17252 | 8833 ft | 241 kts | 290° |
| 2026-04-27 01:17 | 44.11017 | 18.14932 | 8501 ft | 247 kts | 256° |
| 2026-04-27 01:17 | 44.10158 | 18.12877 | 8238 ft | 250 kts | 226° |
| 2026-04-27 01:17 | 44.08687 | 18.11612 | 8016 ft | 249 kts | 206° |
| 2026-04-27 01:17 | 44.07160 | 18.10499 | 7777 ft | 246 kts | 211° |
| 2026-04-27 01:18 | 44.05644 | 18.09349 | 7497 ft | 251 kts | 207° |
| 2026-04-27 01:18 | 44.04060 | 18.08324 | 7226 ft | 257 kts | 203° |
| 2026-04-27 01:18 | 44.02380 | 18.07442 | 6936 ft | 259 kts | 199° |
| 2026-04-27 01:18 | 44.00658 | 18.06720 | 6709 ft | 256 kts | 194° |
| 2026-04-27 01:19 | 43.98951 | 18.06166 | 6587 ft | 248 kts | 191° |
| 2026-04-27 01:19 | 43.97289 | 18.05770 | 6502 ft | 236 kts | 187° |
| 2026-04-27 01:19 | 43.95701 | 18.05524 | 6365 ft | 224 kts | 183° |
| 2026-04-27 01:19 | 43.94179 | 18.05470 | 6134 ft | 215 kts | 170° |
| 2026-04-27 01:20 | 43.92846 | 18.06248 | 5849 ft | 205 kts | 135° |
| 2026-04-27 01:20 | 43.91994 | 18.07711 | 5593 ft | 194 kts | 116° |
| 2026-04-27 01:20 | 43.91355 | 18.09336 | 5356 ft | 190 kts | 113° |
| 2026-04-27 01:20 | 43.90747 | 18.10962 | 5086 ft | 190 kts | 113° |
| 2026-04-27 01:21 | 43.90143 | 18.12582 | 4846 ft | 188 kts | 113° |
| 2026-04-27 01:21 | 43.89541 | 18.14186 | 4589 ft | 185 kts | 114° |
| 2026-04-27 01:21 | 43.88957 | 18.15763 | 4346 ft | 183 kts | 114° |
| 2026-04-27 01:21 | 43.88379 | 18.17333 | 4148 ft | 183 kts | 116° |
| 2026-04-27 01:22 | 43.87781 | 18.18917 | 3860 ft | 187 kts | 117° |
| 2026-04-27 01:22 | 43.87204 | 18.20453 | 3606 ft | 173 kts | 117° |
| 2026-04-27 01:22 | 43.86672 | 18.21862 | 3411 ft | 158 kts | 115° |
| 2026-04-27 01:22 | 43.86180 | 18.23171 | 3148 ft | 147 kts | 112° |
| 2026-04-27 01:23 | 43.85722 | 18.24412 | 2913 ft | 142 kts | 110° |
| 2026-04-27 01:23 | 43.85279 | 18.25607 | 2751 ft | 140 kts | 111° |
| 2026-04-27 01:23 | 43.84833 | 18.26803 | 2517 ft | 144 kts | 112° |
| 2026-04-27 01:23 | 43.84359 | 18.28082 | 2368 ft | 155 kts | 114° |
| 2026-04-27 01:24 | 43.83870 | 18.29462 | 2140 ft | 164 kts | 114° |
| 2026-04-27 01:24 | 43.83345 | 18.30853 | 1864 ft | 163 kts | 119° |
| 2026-04-27 01:24 | 43.82819 | 18.32209 | 1678 ft | 154 kts | 118° |
| 2026-04-27 01:24 | 43.82394 | 18.33321 | 1684 ft | 94 kts | 117° |
| 2026-04-27 01:25 | 43.82285 | 18.33661 | 1692 ft | 13 kts | 63° |
| 2026-04-27 01:25 | 43.82374 | 18.33658 | 1689 ft | 12 kts | 343° |
| 2026-04-27 01:25 | 43.82431 | 18.33647 | 1690 ft | 5 kts | 28° |
| 2026-04-27 01:25 | 43.82433 | 18.33693 | 1687 ft | 6 kts | 118° |
| 2026-04-27 01:26 | 43.82424 | 18.33745 | 1690 ft | 5 kts | 68° |
| 2026-04-27 01:26 | 43.82458 | 18.33775 | 1690 ft | 8 kts | 28° |
| 2026-04-27 01:26 | 43.82480 | 18.33791 | 1691 ft | 0 kts | 27° |